Time,TemperatureF,DewpointF,PressureIn,WindDirection,WindDirectionDegrees,WindSpeedMPH,WindSpeedGustMPH,Humidity,HourlyPrecipIn,Conditions,Clouds,dailyrainin,SoftwareType,DateUTC
2013-06-16 00:00:00,59.2,50.9,29.95,WNW,295,1.0,1.0,74,0.00,,CLR,0.00,VWS V14.00,2013-06-16 04:00:00,
2013-06-16 00:01:00,59.2,50.9,29.95,WNW,295,0.0,3.0,74,0.00,,CLR,0.00,VWS V14.00,2013-06-16 04:01:00,
2013-06-16 00:06:00,58.9,50.6,29.95,WNW,295,3.0,3.0,74,0.00,,CLR,0.00,VWS V14.00,2013-06-16 04:06:00,
2013-06-16 00:11:00,58.7,50.1,29.95,WNW,295,2.0,3.0,73,0.00,,CLR,0.00,VWS V14.00,2013-06-16 04:11:00,
2013-06-16 00:16:00,58.6,51.1,29.96,WNW,295,0.0,3.0,76,0.00,,CLR,0.00,VWS V14.00,2013-06-16 04:16:00,
2013-06-16 00:21:00,58.4,50.9,29.95,WNW,295,1.0,3.0,76,0.00,,CLR,0.00,VWS V14.00,2013-06-16 04:21:00,
2013-06-16 00:26:00,58.3,50.1,29.96,WNW,295,1.0,2.0,74,0.00,,CLR,0.00,VWS V14.00,2013-06-16 04:26:00,
2013-06-16 00:31:00,58.3,50.4,29.95,WNW,295,1.0,2.0,75,0.00,,CLR,0.00,VWS V14.00,2013-06-16 04:31:00,
2013-06-16 00:36:00,58.1,49.5,29.95,WNW,295,1.0,2.0,73,0.00,,CLR,0.00,VWS V14.00,2013-06-16 04:36:00,
2013-06-16 00:41:00,58.0,49.0,29.95,WNW,295,1.0,3.0,72,0.00,,CLR,0.00,VWS V14.00,2013-06-16 04:41:00,
2013-06-16 00:46:00,57.8,48.8,29.95,WNW,295,1.0,3.0,72,0.00,,CLR,0.00,VWS V14.00,2013-06-16 04:46:00,
2013-06-16 00:51:00,57.7,49.1,29.95,WNW,295,0.0,3.0,73,0.00,,CLR,0.00,VWS V14.00,2013-06-16 04:51:00,
2013-06-16 00:56:00,57.5,49.3,29.95,WNW,295,2.0,2.0,74,0.00,,CLR,0.00,VWS V14.00,2013-06-16 04:56:00,
2013-06-16 01:01:00,57.4,49.2,29.94,WNW,295,2.0,3.0,74,0.00,,CLR,0.00,VWS V14.00,2013-06-16 05:01:00,
2013-06-16 01:06:00,57.2,49.7,29.95,WNW,295,1.0,3.0,76,0.00,,CLR,0.00,VWS V14.00,2013-06-16 05:06:00,
2013-06-16 01:11:00,57.1,48.9,29.94,WNW,295,2.0,3.0,74,0.00,,CLR,0.00,VWS V14.00,2013-06-16 05:11:00,
2013-06-16 01:16:00,57.1,48.5,29.95,WNW,295,0.0,3.0,73,0.00,,CLR,0.00,VWS V14.00,2013-06-16 05:16:00,
2013-06-16 01:21:00,56.9,48.7,29.94,WNW,295,1.0,3.0,74,0.00,,CLR,0.00,VWS V14.00,2013-06-16 05:21:00,
2013-06-16 01:26:00,57.1,48.9,29.94,WNW,295,2.0,2.0,74,0.00,,CLR,0.00,VWS V14.00,2013-06-16 05:26:00,
2013-06-16 01:31:00,56.9,49.4,29.93,WNW,295,0.0,3.0,76,0.00,,CLR,0.00,VWS V14.00,2013-06-16 05:31:00,
2013-06-16 01:35:00,56.8,49.0,29.94,WNW,295,1.0,3.0,75,0.00,,CLR,0.00,VWS V14.00,2013-06-16 05:35:00,
2013-06-16 01:40:00,56.6,48.4,29.93,WNW,295,0.0,3.0,74,0.00,,CLR,0.00,VWS V14.00,2013-06-16 05:40:00,
2013-06-16 01:45:00,56.6,48.8,29.93,WNW,295,1.0,3.0,75,0.00,,CLR,0.00,VWS V14.00,2013-06-16 05:45:00,
2013-06-16 01:50:00,56.5,49.0,29.94,WNW,295,0.0,3.0,76,0.00,,CLR,0.00,VWS V14.00,2013-06-16 05:50:00,
2013-06-16 01:55:00,56.3,48.8,29.94,WNW,295,0.0,0.0,76,0.00,,CLR,0.00,VWS V14.00,2013-06-16 05:55:00,
2013-06-16 02:00:00,56.3,48.8,29.94,ESE,122,2.0,4.0,76,0.00,,CLR,0.00,VWS V14.00,2013-06-16 06:00:00,
2013-06-16 02:05:00,56.2,49.1,29.94,West,259,2.0,4.0,77,0.00,,CLR,0.00,VWS V14.00,2013-06-16 06:05:00,
2013-06-16 02:10:00,56.5,48.7,29.94,West,260,1.0,4.0,75,0.00,,CLR,0.00,VWS V14.00,2013-06-16 06:10:00,
2013-06-16 02:15:00,56.6,49.1,29.94,SW,221,0.0,4.0,76,0.00,,CLR,0.00,VWS V14.00,2013-06-16 06:15:00,
2013-06-16 02:20:00,56.8,49.3,29.94,SW,215,0.0,4.0,76,0.00,,CLR,0.00,VWS V14.00,2013-06-16 06:20:00,
2013-06-16 02:25:00,56.8,48.6,29.94,WNW,283,5.0,6.0,74,0.00,,CLR,0.00,VWS V14.00,2013-06-16 06:25:00,
2013-06-16 02:30:00,56.9,49.1,29.94,West,275,2.0,6.0,75,0.00,,CLR,0.00,VWS V14.00,2013-06-16 06:30:00,
2013-06-16 02:35:00,56.9,49.4,29.94,West,275,1.0,6.0,76,0.00,,CLR,0.00,VWS V14.00,2013-06-16 06:35:00,
2013-06-16 02:40:00,56.7,48.5,29.94,West,275,1.0,6.0,74,0.00,,CLR,0.00,VWS V14.00,2013-06-16 06:40:00,
2013-06-16 02:45:00,56.5,48.3,29.94,West,275,1.0,6.0,74,0.00,,CLR,0.00,VWS V14.00,2013-06-16 06:45:00,
2013-06-16 02:50:00,56.5,49.0,29.94,West,275,1.0,6.0,76,0.00,,CLR,0.00,VWS V14.00,2013-06-16 06:50:00,
2013-06-16 02:55:00,56.5,49.0,29.95,WNW,283,2.0,2.0,76,0.00,,CLR,0.00,VWS V14.00,2013-06-16 06:55:00,
2013-06-16 03:00:00,56.6,49.5,29.94,WNW,283,2.0,3.0,77,0.00,,CLR,0.00,VWS V14.00,2013-06-16 07:00:00,
2013-06-16 03:05:00,56.5,49.0,29.94,WNW,283,2.0,3.0,76,0.00,,CLR,0.00,VWS V14.00,2013-06-16 07:05:00,
2013-06-16 03:10:00,56.3,48.8,29.94,WNW,283,2.0,3.0,76,0.00,,CLR,0.00,VWS V14.00,2013-06-16 07:10:00,
2013-06-16 03:15:00,56.3,48.5,29.94,WNW,282,1.0,4.0,75,0.00,,CLR,0.00,VWS V14.00,2013-06-16 07:15:00,
2013-06-16 03:20:00,56.3,49.2,29.95,WNW,282,2.0,4.0,77,0.00,,CLR,0.00,VWS V14.00,2013-06-16 07:20:00,
2013-06-16 03:25:00,56.3,49.2,29.95,WNW,282,1.0,1.0,77,0.00,,CLR,0.00,VWS V14.00,2013-06-16 07:25:00,
2013-06-16 03:30:00,56.3,48.8,29.95,WNW,282,1.0,3.0,76,0.00,,CLR,0.00,VWS V14.00,2013-06-16 07:30:00,
2013-06-16 03:35:00,56.3,48.5,29.94,SE,128,1.0,4.0,75,0.00,,CLR,0.00,VWS V14.00,2013-06-16 07:35:00,
2013-06-16 03:40:00,56.2,48.4,29.94,SE,128,1.0,4.0,75,0.00,,CLR,0.00,VWS V14.00,2013-06-16 07:40:00,
2013-06-16 03:45:00,56.2,48.4,29.93,SE,128,1.0,4.0,75,0.00,,CLR,0.00,VWS V14.00,2013-06-16 07:45:00,
2013-06-16 03:50:00,56.0,48.9,29.93,SE,128,1.0,4.0,77,0.00,,CLR,0.00,VWS V14.00,2013-06-16 07:50:00,
2013-06-16 03:55:00,55.9,48.5,29.94,SE,128,1.0,1.0,76,0.00,,CLR,0.00,VWS V14.00,2013-06-16 07:55:00,
2013-06-16 04:00:00,55.7,47.9,29.93,SE,128,0.0,3.0,75,0.00,,CLR,0.00,VWS V14.00,2013-06-16 08:00:00,
2013-06-16 04:05:00,55.9,48.1,29.94,SE,129,0.0,3.0,75,0.00,,CLR,0.00,VWS V14.00,2013-06-16 08:05:00,
2013-06-16 04:10:00,55.9,48.5,29.93,SE,129,1.0,4.0,76,0.00,,CLR,0.00,VWS V14.00,2013-06-16 08:10:00,
2013-06-16 04:15:00,55.9,48.8,29.93,WSW,238,5.0,5.0,77,0.00,,CLR,0.00,VWS V14.00,2013-06-16 08:15:00,
2013-06-16 04:20:00,55.9,48.5,29.93,West,270,0.0,5.0,76,0.00,,CLR,0.00,VWS V14.00,2013-06-16 08:20:00,
2013-06-16 04:25:00,56.0,47.8,29.94,West,270,1.0,1.0,74,0.00,,CLR,0.00,VWS V14.00,2013-06-16 08:25:00,
2013-06-16 04:30:00,55.9,48.1,29.93,West,270,1.0,3.0,75,0.00,,CLR,0.00,VWS V14.00,2013-06-16 08:30:00,
2013-06-16 04:35:00,55.7,48.3,29.93,West,270,0.0,3.0,76,0.00,,CLR,0.00,VWS V14.00,2013-06-16 08:35:00,
2013-06-16 04:40:00,55.4,48.0,29.94,West,270,1.0,3.0,76,0.00,,CLR,0.00,VWS V14.00,2013-06-16 08:40:00,
2013-06-16 04:45:00,55.4,48.3,29.93,West,270,1.0,3.0,77,0.00,,CLR,0.00,VWS V14.00,2013-06-16 08:45:00,
2013-06-16 04:50:00,55.3,48.6,29.94,West,270,0.0,3.0,78,0.00,,CLR,0.00,VWS V14.00,2013-06-16 08:50:00,
2013-06-16 04:55:00,55.3,48.6,29.94,West,270,1.0,1.0,78,0.00,,CLR,0.00,VWS V14.00,2013-06-16 08:55:00,
2013-06-16 05:00:00,55.1,48.4,29.95,West,270,2.0,3.0,78,0.00,,CLR,0.00,VWS V14.00,2013-06-16 09:00:00,
2013-06-16 05:05:00,55.0,48.6,29.93,NNW,337,1.0,4.0,79,0.00,,CLR,0.00,VWS V14.00,2013-06-16 09:05:00,
2013-06-16 05:10:00,55.0,49.0,29.94,NNW,337,1.0,4.0,80,0.00,,CLR,0.00,VWS V14.00,2013-06-16 09:10:00,
2013-06-16 05:15:00,54.7,48.7,29.94,NNW,337,1.0,4.0,80,0.00,,CLR,0.00,VWS V14.00,2013-06-16 09:15:00,
2013-06-16 05:20:00,54.5,48.5,29.94,NNW,337,1.0,4.0,80,0.00,,CLR,0.00,VWS V14.00,2013-06-16 09:20:00,
2013-06-16 05:25:00,54.4,48.4,29.94,NNW,337,1.0,2.0,80,0.00,,CLR,0.00,VWS V14.00,2013-06-16 09:25:00,
2013-06-16 05:30:00,54.2,48.2,29.95,NNW,337,3.0,3.0,80,0.00,,CLR,0.00,VWS V14.00,2013-06-16 09:30:00,
2013-06-16 05:35:00,54.3,48.3,29.95,NNW,337,1.0,3.0,80,0.00,,CLR,0.00,VWS V14.00,2013-06-16 09:35:00,
2013-06-16 05:40:00,54.2,48.5,29.95,NNW,337,0.0,3.0,81,0.00,,CLR,0.00,VWS V14.00,2013-06-16 09:40:00,
2013-06-16 05:45:00,54.1,48.4,29.94,NNW,337,1.0,3.0,81,0.00,,CLR,0.00,VWS V14.00,2013-06-16 09:45:00,
2013-06-16 05:50:00,54.2,48.5,29.94,NNW,337,1.0,3.0,81,0.00,,CLR,0.00,VWS V14.00,2013-06-16 09:50:00,
2013-06-16 05:55:00,54.4,48.7,29.95,NNW,337,1.0,3.0,81,0.00,,CLR,0.00,VWS V14.00,2013-06-16 09:55:00,
2013-06-16 06:00:00,54.5,49.1,29.95,NNW,337,0.0,2.0,82,0.00,,CLR,0.00,VWS V14.00,2013-06-16 10:00:00,
2013-06-16 06:05:00,54.8,49.4,29.95,NNW,337,0.0,2.0,82,0.00,,CLR,0.00,VWS V14.00,2013-06-16 10:05:00,
2013-06-16 06:10:00,55.0,49.3,29.94,NNW,337,1.0,2.0,81,0.00,,CLR,0.00,VWS V14.00,2013-06-16 10:10:00,
2013-06-16 06:15:00,55.3,49.9,29.95,NNW,337,0.0,3.0,82,0.00,,CLR,0.00,VWS V14.00,2013-06-16 10:15:00,
2013-06-16 06:20:00,55.4,49.7,29.94,NNW,336,1.0,3.0,81,0.00,,CLR,0.00,VWS V14.00,2013-06-16 10:20:00,
2013-06-16 06:25:00,55.7,49.6,29.94,SW,229,0.0,4.0,80,0.00,,CLR,0.00,VWS V14.00,2013-06-16 10:25:00,
2013-06-16 06:30:00,55.7,50.0,29.94,SW,229,1.0,3.0,81,0.00,,CLR,0.00,VWS V14.00,2013-06-16 10:30:00,
2013-06-16 06:35:00,55.7,49.6,29.95,SW,229,1.0,3.0,80,0.00,,CLR,0.00,VWS V14.00,2013-06-16 10:35:00,
2013-06-16 06:40:00,55.7,49.3,29.95,SW,229,1.0,3.0,79,0.00,,CLR,0.00,VWS V14.00,2013-06-16 10:40:00,
2013-06-16 06:45:00,55.9,49.5,29.96,NW,312,0.0,4.0,79,0.00,,CLR,0.00,VWS V14.00,2013-06-16 10:45:00,
2013-06-16 06:50:00,56.0,49.6,29.94,NW,312,1.0,4.0,79,0.00,,CLR,0.00,VWS V14.00,2013-06-16 10:50:00,
2013-06-16 06:55:00,56.3,49.9,29.95,NW,314,1.0,5.0,79,0.00,,CLR,0.00,VWS V14.00,2013-06-16 10:55:00,
2013-06-16 07:00:00,56.6,49.8,29.94,NW,314,1.0,2.0,78,0.00,,CLR,0.00,VWS V14.00,2013-06-16 11:00:00,
2013-06-16 07:05:00,56.9,49.8,29.95,NW,314,2.0,2.0,77,0.00,,CLR,0.00,VWS V14.00,2013-06-16 11:05:00,
2013-06-16 07:10:00,57.4,49.9,29.95,NW,314,0.0,3.0,76,0.00,,CLR,0.00,VWS V14.00,2013-06-16 11:10:00,
2013-06-16 07:15:00,57.7,50.5,29.95,NW,314,1.0,3.0,77,0.00,,CLR,0.00,VWS V14.00,2013-06-16 11:15:00,
2013-06-16 07:20:00,58.1,51.3,29.95,NW,314,0.0,3.0,78,0.00,,CLR,0.00,VWS V14.00,2013-06-16 11:20:00,
2013-06-16 07:25:00,58.6,51.1,29.95,NW,304,1.0,4.0,76,0.00,,CLR,0.00,VWS V14.00,2013-06-16 11:25:00,
2013-06-16 07:30:00,59.5,51.2,29.94,NW,308,1.0,3.0,74,0.00,,CLR,0.00,VWS V14.00,2013-06-16 11:30:00,
2013-06-16 07:35:00,60.2,51.5,29.95,NW,324,0.0,4.0,73,0.00,,CLR,0.00,VWS V14.00,2013-06-16 11:35:00,
2013-06-16 07:40:00,60.6,52.3,29.95,NW,323,0.0,4.0,74,0.00,,CLR,0.00,VWS V14.00,2013-06-16 11:40:00,
2013-06-16 07:45:00,60.7,52.7,29.95,NW,323,0.0,4.0,75,0.00,,CLR,0.00,VWS V14.00,2013-06-16 11:45:00,
2013-06-16 07:50:00,60.6,53.0,29.95,NW,323,2.0,4.0,76,0.00,,CLR,0.00,VWS V14.00,2013-06-16 11:50:00,
2013-06-16 07:55:00,60.4,52.8,29.96,NW,323,1.0,4.0,76,0.00,,CLR,0.00,VWS V14.00,2013-06-16 11:55:00,
2013-06-16 08:00:00,60.1,52.9,29.96,NW,323,0.0,3.0,77,0.00,,SCT200,0.00,VWS V14.00,2013-06-16 12:00:00,
2013-06-16 08:05:00,60.1,52.9,29.95,NW,317,1.0,3.0,77,0.00,,SCT200,0.00,VWS V14.00,2013-06-16 12:05:00,
2013-06-16 08:10:00,60.9,53.7,29.95,NW,317,1.0,3.0,77,0.00,,SCT200,0.00,VWS V14.00,2013-06-16 12:10:00,
2013-06-16 08:15:00,61.8,54.5,29.96,NW,317,1.0,3.0,77,0.00,,SCT200,0.00,VWS V14.00,2013-06-16 12:15:00,
2013-06-16 08:20:00,62.9,55.2,29.95,NW,313,2.0,5.0,76,0.00,,SCT200,0.00,VWS V14.00,2013-06-16 12:20:00,
2013-06-16 08:25:00,63.7,55.3,29.95,West,276,2.0,5.0,74,0.00,,SCT200,0.00,VWS V14.00,2013-06-16 12:25:00,
2013-06-16 08:30:00,64.4,55.6,29.94,WSW,241,3.0,4.0,73,0.00,,SCT200,0.00,VWS V14.00,2013-06-16 12:30:00,
2013-06-16 08:35:00,65.0,55.4,29.94,North,0,1.0,4.0,71,0.00,,SCT200,0.00,VWS V14.00,2013-06-16 12:35:00,
2013-06-16 08:40:00,65.7,55.7,29.94,North,0,1.0,4.0,70,0.00,,SCT200,0.00,VWS V14.00,2013-06-16 12:40:00,
2013-06-16 08:45:00,66.3,56.2,29.95,North,0,0.0,4.0,70,0.00,,SCT200,0.00,VWS V14.00,2013-06-16 12:45:00,
2013-06-16 08:50:00,67.1,56.6,29.94,North,0,0.0,4.0,69,0.00,,SCT200,0.00,VWS V14.00,2013-06-16 12:50:00,
2013-06-16 08:55:00,67.8,56.5,29.94,NNW,348,1.0,4.0,67,0.00,,SCT200,0.00,VWS V14.00,2013-06-16 12:55:00,
2013-06-16 09:00:00,68.3,56.9,29.94,NNW,335,0.0,5.0,67,0.00,,SCT200,0.00,VWS V14.00,2013-06-16 13:00:00,
2013-06-16 09:05:00,68.6,57.2,29.95,South,177,1.0,5.0,67,0.00,,SCT200,0.00,VWS V14.00,2013-06-16 13:05:00,
2013-06-16 09:10:00,68.6,57.6,29.94,South,177,0.0,5.0,68,0.00,,SCT200,0.00,VWS V14.00,2013-06-16 13:10:00,
2013-06-16 09:15:00,69.0,58.4,29.94,South,177,0.0,5.0,69,0.00,,SCT200,0.00,VWS V14.00,2013-06-16 13:15:00,
2013-06-16 09:20:00,68.8,57.4,29.93,South,185,0.0,5.0,67,0.00,,SCT200,0.00,VWS V14.00,2013-06-16 13:20:00,
2013-06-16 09:25:00,68.6,57.6,29.94,SSW,192,2.0,5.0,68,0.00,,SCT200,0.00,VWS V14.00,2013-06-16 13:25:00,
2013-06-16 09:30:00,68.8,57.8,29.93,NNW,339,1.0,7.0,68,0.00,,SCT200,0.00,VWS V14.00,2013-06-16 13:30:00,
2013-06-16 09:35:00,68.9,57.1,29.94,North,0,2.0,7.0,66,0.00,,SCT200,0.00,VWS V14.00,2013-06-16 13:35:00,
2013-06-16 09:40:00,69.6,56.0,29.93,West,271,2.0,7.0,62,0.00,,SCT200,0.00,VWS V14.00,2013-06-16 13:40:00,
2013-06-16 09:45:00,70.4,56.8,29.93,NNW,329,2.0,7.0,62,0.00,,SCT200,0.00,VWS V14.00,2013-06-16 13:45:00,
2013-06-16 09:50:00,71.3,56.7,29.93,NW,317,1.0,8.0,60,0.00,,SCT200,0.00,VWS V14.00,2013-06-16 13:50:00,
2013-06-16 09:55:00,72.0,56.4,29.93,WNW,301,0.0,8.0,58,0.00,,SCT200,0.00,VWS V14.00,2013-06-16 13:55:00,
2013-06-16 10:00:00,72.5,55.9,29.93,NNW,337,1.0,5.0,56,0.00,,CLR,0.00,VWS V14.00,2013-06-16 14:00:00,
2013-06-16 10:05:00,73.2,57.1,29.92,North,349,1.0,5.0,57,0.00,,CLR,0.00,VWS V14.00,2013-06-16 14:05:00,
2013-06-16 10:10:00,73.3,56.2,29.93,North,0,1.0,8.0,55,0.00,,CLR,0.00,VWS V14.00,2013-06-16 14:10:00,
2013-06-16 10:15:00,73.8,57.1,29.92,SSW,192,1.0,8.0,56,0.00,,CLR,0.00,VWS V14.00,2013-06-16 14:15:00,
2013-06-16 10:20:00,74.2,57.0,29.92,North,7,4.0,8.0,55,0.00,,CLR,0.00,VWS V14.00,2013-06-16 14:20:00,
2013-06-16 10:25:00,73.9,57.2,29.93,SSW,211,2.0,8.0,56,0.00,,CLR,0.00,VWS V14.00,2013-06-16 14:25:00,
2013-06-16 10:30:00,73.5,57.3,29.92,SW,230,2.0,4.0,57,0.00,,CLR,0.00,VWS V14.00,2013-06-16 14:30:00,
2013-06-16 10:35:00,73.3,57.2,29.91,SW,232,2.0,6.0,57,0.00,,CLR,0.00,VWS V14.00,2013-06-16 14:35:00,
2013-06-16 10:40:00,73.3,58.6,29.91,WNW,293,1.0,6.0,60,0.00,,CLR,0.00,VWS V14.00,2013-06-16 14:40:00,
2013-06-16 10:45:00,73.2,58.5,29.90,NNW,328,3.0,6.0,60,0.00,,CLR,0.00,VWS V14.00,2013-06-16 14:45:00,
2013-06-16 10:50:00,73.0,58.3,29.91,NNW,335,1.0,6.0,60,0.00,,CLR,0.00,VWS V14.00,2013-06-16 14:50:00,
2013-06-16 10:55:00,72.5,56.9,29.91,SSW,199,2.0,8.0,58,0.00,,CLR,0.00,VWS V14.00,2013-06-16 14:55:00,
2013-06-16 11:00:00,72.3,57.2,29.90,SE,133,5.0,6.0,59,0.00,,CLR,0.00,VWS V14.00,2013-06-16 15:00:00,
2013-06-16 11:05:00,72.1,57.5,29.91,East,95,1.0,6.0,60,0.00,,CLR,0.00,VWS V14.00,2013-06-16 15:05:00,
2013-06-16 11:10:00,72.1,58.4,29.91,ESE,115,1.0,6.0,62,0.00,,CLR,0.00,VWS V14.00,2013-06-16 15:10:00,
2013-06-16 11:15:00,72.3,57.2,29.90,NNW,343,0.0,6.0,59,0.00,,CLR,0.00,VWS V14.00,2013-06-16 15:15:00,
2013-06-16 11:20:00,72.6,57.0,29.90,SW,227,2.0,6.0,58,0.00,,CLR,0.00,VWS V14.00,2013-06-16 15:20:00,
2013-06-16 11:25:00,72.8,57.2,29.90,NW,321,3.0,6.0,58,0.00,,CLR,0.00,VWS V14.00,2013-06-16 15:25:00,
2013-06-16 11:30:00,72.3,57.2,29.90,SSE,168,1.0,7.0,59,0.00,,CLR,0.00,VWS V14.00,2013-06-16 15:30:00,
2013-06-16 11:35:00,71.6,57.0,29.90,SSW,194,0.0,7.0,60,0.00,,CLR,0.00,VWS V14.00,2013-06-16 15:35:00,
2013-06-16 11:40:00,71.1,57.4,29.90,SSW,211,1.0,7.0,62,0.00,,CLR,0.00,VWS V14.00,2013-06-16 15:40:00,
2013-06-16 11:45:00,70.6,58.3,29.91,SSW,210,1.0,7.0,65,0.00,,CLR,0.00,VWS V14.00,2013-06-16 15:45:00,
2013-06-16 11:50:00,70.1,57.8,29.89,SSW,210,0.0,7.0,65,0.00,,CLR,0.00,VWS V14.00,2013-06-16 15:50:00,
2013-06-16 11:55:00,69.5,58.1,29.89,SSW,209,2.0,7.0,67,0.00,,CLR,0.00,VWS V14.00,2013-06-16 15:55:00,
2013-06-16 12:00:00,69.0,58.4,29.89,SSW,211,2.0,3.0,69,0.00,,CLR,0.00,VWS V14.00,2013-06-16 16:00:00,
2013-06-16 12:05:00,68.5,58.3,29.88,SW,215,2.0,4.0,70,0.00,,CLR,0.00,VWS V14.00,2013-06-16 16:05:00,
2013-06-16 12:10:00,68.1,58.3,29.90,SSW,196,1.0,6.0,71,0.00,,CLR,0.00,VWS V14.00,2013-06-16 16:10:00,
2013-06-16 12:15:00,68.1,58.3,29.89,SSW,197,1.0,6.0,71,0.00,,CLR,0.00,VWS V14.00,2013-06-16 16:15:00,
2013-06-16 12:20:00,68.1,58.7,29.88,SSW,198,4.0,6.0,72,0.00,,CLR,0.00,VWS V14.00,2013-06-16 16:20:00,
2013-06-16 12:25:00,68.5,59.1,29.88,SSW,198,2.0,6.0,72,0.00,,CLR,0.00,VWS V14.00,2013-06-16 16:25:00,
2013-06-16 12:30:00,68.6,58.8,29.88,SSW,199,2.0,6.0,71,0.00,,CLR,0.00,VWS V14.00,2013-06-16 16:30:00,
2013-06-16 12:35:00,68.8,58.6,29.87,SSW,205,4.0,6.0,70,0.00,,CLR,0.00,VWS V14.00,2013-06-16 16:35:00,
2013-06-16 12:40:00,68.9,59.5,29.87,WSW,241,2.0,6.0,72,0.00,,CLR,0.00,VWS V14.00,2013-06-16 16:40:00,
2013-06-16 12:45:00,69.1,59.3,29.87,SSW,205,5.0,6.0,71,0.00,,CLR,0.00,VWS V14.00,2013-06-16 16:45:00,
2013-06-16 12:50:00,69.1,59.7,29.87,SSW,199,1.0,6.0,72,0.00,,CLR,0.00,VWS V14.00,2013-06-16 16:50:00,
2013-06-16 12:55:00,69.1,59.7,29.86,SSW,212,1.0,6.0,72,0.00,,CLR,0.00,VWS V14.00,2013-06-16 16:55:00,
2013-06-16 13:00:00,69.1,59.7,29.87,SW,224,3.0,4.0,72,0.00,,BKN200,0.00,VWS V14.00,2013-06-16 17:00:00,
2013-06-16 13:05:00,69.1,59.7,29.87,SW,226,2.0,4.0,72,0.00,,BKN200,0.00,VWS V14.00,2013-06-16 17:05:00,
2013-06-16 13:10:00,69.1,59.3,29.86,SW,234,1.0,4.0,71,0.00,,BKN200,0.00,VWS V14.00,2013-06-16 17:10:00,
2013-06-16 13:15:00,69.1,60.1,29.87,SW,235,1.0,4.0,73,0.00,,BKN200,0.00,VWS V14.00,2013-06-16 17:15:00,
2013-06-16 13:20:00,69.1,60.5,29.86,SSW,203,1.0,4.0,74,0.00,,BKN200,0.00,VWS V14.00,2013-06-16 17:20:00,
2013-06-16 13:25:00,68.8,59.8,29.85,SSW,199,0.0,4.0,73,0.00,,BKN200,0.00,VWS V14.00,2013-06-16 17:25:00,
2013-06-16 13:30:00,68.9,60.3,29.86,SSW,199,0.0,3.0,74,0.00,,BKN200,0.00,VWS V14.00,2013-06-16 17:30:00,
2013-06-16 13:35:00,69.1,60.8,29.85,SSW,199,0.0,3.0,75,0.00,,BKN200,0.00,VWS V14.00,2013-06-16 17:35:00,
2013-06-16 13:40:00,69.3,61.0,29.85,SSW,199,3.0,3.0,75,0.00,,BKN200,0.00,VWS V14.00,2013-06-16 17:40:00,
2013-06-16 13:45:00,69.8,61.5,29.85,SSW,200,2.0,4.0,75,0.00,,BKN200,0.00,VWS V14.00,2013-06-16 17:45:00,
2013-06-16 13:50:00,70.1,62.2,29.85,SSW,200,2.0,4.0,76,0.00,,BKN200,0.00,VWS V14.00,2013-06-16 17:50:00,
2013-06-16 13:55:00,70.3,62.0,29.86,WSW,242,2.0,5.0,75,0.00,,BKN200,0.00,VWS V14.00,2013-06-16 17:55:00,
2013-06-16 14:00:00,70.4,61.7,29.85,WSW,242,2.0,2.0,74,0.00,,FEW110,0.00,VWS V14.00,2013-06-16 18:00:00,
2013-06-16 14:05:00,70.4,62.1,29.84,WSW,241,1.0,4.0,75,0.00,,FEW110,0.00,VWS V14.00,2013-06-16 18:05:00,
2013-06-16 14:10:00,70.4,62.5,29.84,WSW,241,1.0,4.0,76,0.00,,FEW110,0.00,VWS V14.00,2013-06-16 18:10:00,
2013-06-16 14:15:00,70.6,62.7,29.84,WSW,241,1.0,4.0,76,0.00,,FEW110,0.00,VWS V14.00,2013-06-16 18:15:00,
2013-06-16 14:20:00,70.8,62.9,29.83,SW,218,4.0,5.0,76,0.00,,FEW110,0.00,VWS V14.00,2013-06-16 18:20:00,
2013-06-16 14:25:00,70.8,61.7,29.83,SW,220,1.0,6.0,73,0.00,,FEW110,0.00,VWS V14.00,2013-06-16 18:25:00,
2013-06-16 14:30:00,70.9,62.2,29.82,SSE,158,2.0,6.0,74,0.00,,FEW110,0.00,VWS V14.00,2013-06-16 18:30:00,
2013-06-16 14:35:00,71.1,61.6,29.82,SW,215,2.0,7.0,72,0.00,,FEW110,0.00,VWS V14.00,2013-06-16 18:35:00,
2013-06-16 14:40:00,71.1,61.6,29.82,South,186,3.0,7.0,72,0.00,,FEW110,0.00,VWS V14.00,2013-06-16 18:40:00,
2013-06-16 14:45:00,70.9,61.0,29.82,SW,223,2.0,7.0,71,0.00,,FEW110,0.00,VWS V14.00,2013-06-16 18:45:00,
2013-06-16 14:50:00,70.8,60.5,29.81,SSW,207,1.0,7.0,70,0.00,,FEW110,0.00,VWS V14.00,2013-06-16 18:50:00,
2013-06-16 14:55:00,70.9,60.6,29.81,South,184,2.0,7.0,70,0.00,,FEW110,0.00,VWS V14.00,2013-06-16 18:55:00,
2013-06-16 15:00:00,70.9,60.2,29.80,South,183,3.0,5.0,69,0.00,,BKN110,0.00,VWS V14.00,2013-06-16 19:00:00,
2013-06-16 15:05:00,70.8,60.1,29.80,SW,218,1.0,5.0,69,0.00,,BKN110,0.00,VWS V14.00,2013-06-16 19:05:00,
2013-06-16 15:10:00,70.6,60.3,29.80,SW,228,3.0,8.0,70,0.00,,BKN110,0.00,VWS V14.00,2013-06-16 19:10:00,
2013-06-16 15:15:00,70.4,60.6,29.80,WSW,250,2.0,8.0,71,0.00,,BKN110,0.00,VWS V14.00,2013-06-16 19:15:00,
2013-06-16 15:20:00,70.4,60.2,29.79,WSW,243,2.0,8.0,70,0.00,,BKN110,0.00,VWS V14.00,2013-06-16 19:20:00,
2013-06-16 15:25:00,70.4,60.2,29.79,SW,219,2.0,8.0,70,0.00,,BKN110,0.00,VWS V14.00,2013-06-16 19:25:00,
2013-06-16 15:30:00,70.3,60.1,29.80,SW,227,1.0,10.0,70,0.00,,BKN110,0.00,VWS V14.00,2013-06-16 19:30:00,
2013-06-16 15:35:00,70.0,59.4,29.79,SE,145,1.0,10.0,69,0.00,,BKN110,0.00,VWS V14.00,2013-06-16 19:35:00,
2013-06-16 15:40:00,69.6,59.8,29.79,South,174,1.0,10.0,71,0.00,,BKN110,0.00,VWS V14.00,2013-06-16 19:40:00,
2013-06-16 15:45:00,69.6,59.8,29.78,West,265,1.0,10.0,71,0.00,,BKN110,0.00,VWS V14.00,2013-06-16 19:45:00,
2013-06-16 15:50:00,69.6,59.4,29.78,WSW,256,2.0,10.0,70,0.00,,BKN110,0.00,VWS V14.00,2013-06-16 19:50:00,
2013-06-16 15:55:00,69.6,59.0,29.78,SSW,211,3.0,10.0,69,0.00,,BKN110,0.00,VWS V14.00,2013-06-16 19:55:00,
2013-06-16 16:00:00,69.6,59.0,29.78,SSW,203,0.0,4.0,69,0.00,,BKN110,0.00,VWS V14.00,2013-06-16 20:00:00,
2013-06-16 16:05:00,69.6,59.0,29.77,WSW,239,0.0,6.0,69,0.00,,BKN110,0.00,VWS V14.00,2013-06-16 20:05:00,
2013-06-16 16:10:00,69.7,59.1,29.77,SE,142,2.0,7.0,69,0.00,,BKN110,0.00,VWS V14.00,2013-06-16 20:10:00,
2013-06-16 16:15:00,69.8,59.2,29.77,West,271,1.0,7.0,69,0.00,,BKN110,0.00,VWS V14.00,2013-06-16 20:15:00,
2013-06-16 16:20:00,69.9,59.7,29.77,SSW,194,3.0,7.0,70,0.00,,BKN110,0.00,VWS V14.00,2013-06-16 20:20:00,
2013-06-16 16:25:00,69.9,59.3,29.77,West,267,4.0,7.0,69,0.00,,BKN110,0.00,VWS V14.00,2013-06-16 20:25:00,
2013-06-16 16:30:00,69.8,60.0,29.77,SSW,211,1.0,6.0,71,0.00,,BKN110,0.00,VWS V14.00,2013-06-16 20:30:00,
2013-06-16 16:35:00,69.6,59.0,29.77,SW,221,1.0,6.0,69,0.00,,BKN110,0.00,VWS V14.00,2013-06-16 20:35:00,
2013-06-16 16:40:00,69.4,58.8,29.76,SSW,207,3.0,6.0,69,0.00,,BKN110,0.00,VWS V14.00,2013-06-16 20:40:00,
2013-06-16 16:45:00,69.5,58.9,29.76,WSW,255,1.0,6.0,69,0.00,,BKN110,0.00,VWS V14.00,2013-06-16 20:45:00,
2013-06-16 16:50:00,69.6,59.0,29.76,WSW,239,3.0,6.0,69,0.00,,BKN110,0.00,VWS V14.00,2013-06-16 20:50:00,
2013-06-16 16:55:00,69.8,58.8,29.76,SW,215,1.0,6.0,68,0.00,,BKN110,0.00,VWS V14.00,2013-06-16 20:55:00,
2013-06-16 17:00:00,69.8,58.8,29.75,SW,233,2.0,5.0,68,0.00,,OVC095,0.00,VWS V14.00,2013-06-16 21:00:00,
2013-06-16 17:05:00,69.6,58.6,29.75,South,178,2.0,8.0,68,0.00,,OVC095,0.00,VWS V14.00,2013-06-16 21:05:00,
2013-06-16 17:10:00,69.6,58.6,29.75,South,190,2.0,8.0,68,0.00,,OVC095,0.00,VWS V14.00,2013-06-16 21:10:00,
2013-06-16 17:15:00,69.3,58.3,29.75,SSW,199,2.0,8.0,68,0.00,,OVC095,0.00,VWS V14.00,2013-06-16 21:15:00,
2013-06-16 17:20:00,69.3,58.3,29.75,South,188,1.0,8.0,68,0.00,,OVC095,0.00,VWS V14.00,2013-06-16 21:20:00,
2013-06-16 17:25:00,69.1,58.5,29.75,West,268,3.0,8.0,69,0.00,,OVC095,0.00,VWS V14.00,2013-06-16 21:25:00,
2013-06-16 17:30:00,69.1,58.5,29.75,SW,229,2.0,4.0,69,0.00,,OVC095,0.00,VWS V14.00,2013-06-16 21:30:00,
2013-06-16 17:35:00,69.1,58.5,29.75,South,177,1.0,7.0,69,0.00,,OVC095,0.00,VWS V14.00,2013-06-16 21:35:00,
2013-06-16 17:40:00,69.1,58.5,29.75,SW,223,4.0,7.0,69,0.00,,OVC095,0.00,VWS V14.00,2013-06-16 21:40:00,
2013-06-16 17:45:00,69.1,58.5,29.74,SW,223,1.0,7.0,69,0.00,,OVC095,0.00,VWS V14.00,2013-06-16 21:45:00,
2013-06-16 17:50:00,69.1,58.9,29.74,WSW,240,3.0,7.0,70,0.00,,OVC095,0.00,VWS V14.00,2013-06-16 21:50:00,
2013-06-16 17:55:00,69.1,59.3,29.74,SW,231,1.0,7.0,71,0.00,,OVC095,0.00,VWS V14.00,2013-06-16 21:55:00,
2013-06-16 18:00:00,69.3,59.5,29.74,SSW,192,4.0,8.0,71,0.00,,OVC080,0.00,VWS V14.00,2013-06-16 22:00:00,
2013-06-16 18:05:00,69.3,59.5,29.74,SSW,197,3.0,8.0,71,0.00,,OVC080,0.00,VWS V14.00,2013-06-16 22:05:00,
2013-06-16 18:10:00,69.3,59.9,29.74,WNW,298,1.0,8.0,72,0.00,,OVC080,0.00,VWS V14.00,2013-06-16 22:10:00,
2013-06-16 18:15:00,69.3,59.9,29.74,SSW,208,1.0,8.0,72,0.00,,OVC080,0.00,VWS V14.00,2013-06-16 22:15:00,
2013-06-16 18:20:00,69.1,60.1,29.74,SSW,209,2.0,8.0,73,0.00,,OVC080,0.00,VWS V14.00,2013-06-16 22:20:00,
2013-06-16 18:25:00,69.1,60.1,29.74,SSW,205,1.0,8.0,73,0.00,,OVC080,0.00,VWS V14.00,2013-06-16 22:25:00,
2013-06-16 18:30:00,68.9,60.3,29.74,SW,219,3.0,6.0,74,0.00,,OVC080,0.00,VWS V14.00,2013-06-16 22:30:00,
2013-06-16 18:35:00,69.0,60.4,29.74,South,181,2.0,6.0,74,0.00,,OVC080,0.00,VWS V14.00,2013-06-16 22:35:00,
2013-06-16 18:40:00,68.8,60.6,29.73,South,186,3.0,6.0,75,0.00,,OVC080,0.00,VWS V14.00,2013-06-16 22:40:00,
2013-06-16 18:45:00,68.8,60.9,29.73,SW,223,1.0,6.0,76,0.00,,OVC080,0.00,VWS V14.00,2013-06-16 22:45:00,
2013-06-16 18:50:00,68.8,60.9,29.73,SSW,194,1.0,7.0,76,0.00,,OVC080,0.00,VWS V14.00,2013-06-16 22:50:00,
2013-06-16 18:55:00,68.8,61.3,29.73,South,169,5.0,7.0,77,0.00,,OVC080,0.00,VWS V14.00,2013-06-16 22:55:00,
2013-06-16 19:00:00,68.8,61.3,29.73,WSW,255,4.0,4.0,77,0.00,,OVC060,0.00,VWS V14.00,2013-06-16 23:00:00,
2013-06-16 19:05:00,68.8,61.3,29.72,South,169,2.0,7.0,77,0.00,,OVC060,0.00,VWS V14.00,2013-06-16 23:05:00,
2013-06-16 19:10:00,68.8,61.3,29.72,SSW,210,1.0,7.0,77,0.00,,OVC060,0.00,VWS V14.00,2013-06-16 23:10:00,
2013-06-16 19:15:00,68.9,61.8,29.73,SW,221,1.0,7.0,78,0.00,,OVC060,0.00,VWS V14.00,2013-06-16 23:15:00,
2013-06-16 19:20:00,69.0,61.9,29.73,SSW,193,3.0,7.0,78,0.00,,OVC060,0.00,VWS V14.00,2013-06-16 23:20:00,
2013-06-16 19:25:00,68.8,62.0,29.73,SSW,193,2.0,7.0,79,0.00,,OVC060,0.00,VWS V14.00,2013-06-16 23:25:00,
2013-06-16 19:29:00,68.8,62.4,29.73,SSW,193,1.0,4.0,80,0.00,,OVC060,0.00,VWS V14.00,2013-06-16 23:29:00,
2013-06-16 19:34:00,68.6,62.2,29.73,SSW,193,0.0,4.0,80,0.00,,OVC060,0.00,VWS V14.00,2013-06-16 23:34:00,
2013-06-16 19:39:00,68.6,62.5,29.73,SW,227,2.0,5.0,81,0.00,,OVC060,0.00,VWS V14.00,2013-06-16 23:39:00,
2013-06-16 19:45:00,68.8,62.7,29.73,SW,234,2.0,5.0,81,0.00,,OVC060,0.00,VWS V14.00,2013-06-16 23:45:00,
2013-06-16 19:50:00,68.6,62.5,29.73,WSW,237,1.0,5.0,81,0.00,,OVC060,0.00,VWS V14.00,2013-06-16 23:50:00,
2013-06-16 19:55:00,68.6,62.9,29.73,SW,232,2.0,5.0,82,0.00,,OVC060,0.00,VWS V14.00,2013-06-16 23:55:00,
2013-06-16 20:00:00,68.5,62.8,29.73,SW,218,3.0,4.0,82,0.00,,SCT110,0.00,VWS V14.00,2013-06-17 00:00:00,
2013-06-16 20:05:00,68.5,63.1,29.74,SW,216,0.0,4.0,83,0.00,,SCT110,0.00,VWS V14.00,2013-06-17 00:05:00,
2013-06-16 20:10:00,68.3,62.9,29.73,SW,216,1.0,4.0,83,0.00,,SCT110,0.00,VWS V14.00,2013-06-17 00:10:00,
2013-06-16 20:15:00,68.1,63.1,29.73,SW,214,2.0,4.0,84,0.00,,SCT110,0.00,VWS V14.00,2013-06-17 00:15:00,
2013-06-16 20:20:00,68.0,63.3,29.74,SW,223,1.0,4.0,85,0.00,,SCT110,0.00,VWS V14.00,2013-06-17 00:20:00,
2013-06-16 20:25:00,68.0,63.3,29.74,SW,223,3.0,4.0,85,0.00,,SCT110,0.00,VWS V14.00,2013-06-17 00:25:00,
2013-06-16 20:30:00,67.8,63.5,29.74,South,190,0.0,3.0,86,0.00,,SCT110,0.00,VWS V14.00,2013-06-17 00:30:00,
2013-06-16 20:35:00,67.6,63.3,29.74,SSW,192,1.0,3.0,86,0.00,,SCT110,0.00,VWS V14.00,2013-06-17 00:35:00,
2013-06-16 20:40:00,67.5,63.2,29.74,SSW,193,2.0,3.0,86,0.00,,SCT110,0.00,VWS V14.00,2013-06-17 00:40:00,
2013-06-16 20:45:00,67.3,63.3,29.74,SSW,194,1.0,4.0,87,0.00,,SCT110,0.00,VWS V14.00,2013-06-17 00:45:00,
2013-06-16 20:50:00,67.3,63.6,29.74,SSW,194,1.0,4.0,88,0.00,,SCT110,0.00,VWS V14.00,2013-06-17 00:50:00,
2013-06-16 20:55:00,67.3,63.6,29.74,SSW,192,3.0,4.0,88,0.00,,SCT110,0.00,VWS V14.00,2013-06-17 00:55:00,
2013-06-16 21:00:00,67.5,63.8,29.74,SSW,196,1.0,4.0,88,0.00,,SCT110,0.00,VWS V14.00,2013-06-17 01:00:00,
2013-06-16 21:05:00,67.5,63.8,29.74,SSW,210,1.0,4.0,88,0.00,,SCT110,0.00,VWS V14.00,2013-06-17 01:05:00,
2013-06-16 21:10:00,67.5,63.8,29.75,SSW,210,1.0,4.0,88,0.00,,SCT110,0.00,VWS V14.00,2013-06-17 01:10:00,
2013-06-16 21:15:00,67.5,63.8,29.75,SSW,210,2.0,4.0,88,0.00,,SCT110,0.00,VWS V14.00,2013-06-17 01:15:00,
2013-06-16 21:20:00,67.3,63.6,29.75,SSW,209,3.0,5.0,88,0.00,,SCT110,0.00,VWS V14.00,2013-06-17 01:20:00,
2013-06-16 21:25:00,67.1,63.8,29.75,SSW,209,2.0,5.0,89,0.00,,SCT110,0.00,VWS V14.00,2013-06-17 01:25:00,
2013-06-16 21:30:00,67.0,64.0,29.75,SSW,209,3.0,3.0,90,0.00,,SCT110,0.00,VWS V14.00,2013-06-17 01:30:00,
2013-06-16 21:35:00,67.0,64.0,29.75,SSW,209,2.0,4.0,90,0.00,,SCT110,0.00,VWS V14.00,2013-06-17 01:35:00,
2013-06-16 21:40:00,66.8,63.8,29.75,SSW,210,1.0,4.0,90,0.00,,SCT110,0.00,VWS V14.00,2013-06-17 01:40:00,
2013-06-16 21:45:00,66.8,64.1,29.75,SSW,210,0.0,4.0,91,0.00,,SCT110,0.00,VWS V14.00,2013-06-17 01:45:00,
2013-06-16 21:50:00,66.8,64.1,29.76,SSW,210,0.0,4.0,91,0.00,,SCT110,0.00,VWS V14.00,2013-06-17 01:50:00,
2013-06-16 21:55:00,66.8,63.8,29.76,SSW,210,2.0,4.0,90,0.00,,SCT110,0.00,VWS V14.00,2013-06-17 01:55:00,
2013-06-16 22:00:00,66.8,64.1,29.77,West,267,2.0,3.0,91,0.00,,SCT075,0.00,VWS V14.00,2013-06-17 02:00:00,
2013-06-16 22:05:00,66.8,64.1,29.76,West,267,1.0,4.0,91,0.00,,SCT075,0.00,VWS V14.00,2013-06-17 02:05:00,
2013-06-16 22:10:00,66.6,63.9,29.76,West,267,0.0,4.0,91,0.00,,SCT075,0.00,VWS V14.00,2013-06-17 02:10:00,
2013-06-16 22:15:00,66.6,64.2,29.77,WSW,238,0.0,5.0,92,0.00,,SCT075,0.00,VWS V14.00,2013-06-17 02:15:00,
2013-06-16 22:20:00,66.6,64.2,29.76,WSW,239,0.0,5.0,92,0.00,,SCT075,0.00,VWS V14.00,2013-06-17 02:20:00,
2013-06-16 22:24:00,66.6,64.2,29.76,WSW,239,0.0,5.0,92,0.00,,SCT075,0.00,VWS V14.00,2013-06-17 02:24:00,
2013-06-16 22:29:00,66.6,64.2,29.77,SSE,156,0.0,2.0,92,0.00,,SCT075,0.00,VWS V14.00,2013-06-17 02:29:00,
2013-06-16 22:34:00,66.6,64.2,29.77,SSE,156,0.0,2.0,92,0.00,,SCT075,0.00,VWS V14.00,2013-06-17 02:34:00,
2013-06-16 22:40:00,66.5,64.1,29.77,SSE,156,0.0,2.0,92,0.00,,SCT075,0.00,VWS V14.00,2013-06-17 02:40:00,
2013-06-16 22:45:00,66.3,63.9,29.77,SSE,150,1.0,3.0,92,0.00,,SCT075,0.00,VWS V14.00,2013-06-17 02:45:00,
2013-06-16 22:49:00,66.3,63.9,29.77,SSE,150,0.0,3.0,92,0.00,,SCT075,0.00,VWS V14.00,2013-06-17 02:49:00,
2013-06-16 22:54:00,66.4,64.0,29.77,North,352,2.0,8.0,92,0.00,,SCT075,0.00,VWS V14.00,2013-06-17 02:54:00,
2013-06-16 22:59:00,66.8,64.1,29.77,NW,318,0.0,4.0,91,0.00,,CLR,0.00,VWS V14.00,2013-06-17 02:59:00,
2013-06-16 23:04:00,66.9,63.9,29.78,NNW,340,3.0,5.0,90,0.00,,CLR,0.00,VWS V14.00,2013-06-17 03:04:00,
2013-06-16 23:09:00,67.0,63.7,29.78,North,358,3.0,11.0,89,0.00,,CLR,0.00,VWS V14.00,2013-06-17 03:09:00,
2013-06-16 23:14:00,67.1,63.1,29.78,NNE,28,3.0,11.0,87,0.00,,CLR,0.00,VWS V14.00,2013-06-17 03:14:00,
2013-06-16 23:19:00,67.3,63.0,29.78,NNW,335,3.0,11.0,86,0.00,,CLR,0.00,VWS V14.00,2013-06-17 03:19:00,
2013-06-16 23:24:00,67.6,62.9,29.79,WSW,238,2.0,11.0,85,0.00,,CLR,0.00,VWS V14.00,2013-06-17 03:24:00,
2013-06-16 23:29:00,67.6,62.6,29.79,NW,319,3.0,4.0,84,0.00,,CLR,0.00,VWS V14.00,2013-06-17 03:29:00,
2013-06-16 23:34:00,67.3,62.3,29.79,SW,224,2.0,7.0,84,0.00,,CLR,0.00,VWS V14.00,2013-06-17 03:34:00,
2013-06-16 23:39:00,67.1,62.1,29.79,NNW,328,2.0,14.0,84,0.00,,CLR,0.00,VWS V14.00,2013-06-17 03:39:00,
2013-06-16 23:44:00,67.1,61.8,29.79,NNW,337,2.0,14.0,83,0.00,,CLR,0.00,VWS V14.00,2013-06-17 03:44:00,
2013-06-16 23:49:00,67.1,61.4,29.80,NNW,329,1.0,14.0,82,0.00,,CLR,0.00,VWS V14.00,2013-06-17 03:49:00,
2013-06-16 23:54:00,67.0,61.7,29.80,NNW,340,5.0,14.0,83,0.00,,CLR,0.00,VWS V14.00,2013-06-17 03:54:00,